KASL

Harrison County Airport

Marshall, Texas, USA
METAR KASL 190455Z AUTO 00000KT 5SM CLR 24/22 A2996 RMK AO1 T02400223
Observed Flight Rules
Sep-19 @ 04:55 UTC (20 minutes ago) Marginal Visual Flight Rules
Visibility Clouds
5 miles
  • Clear skies
Temperatures Readings
Current 24°C / 75°F
Dewpoint 22°C / 72°F
Humidity 89%
Altimeter 29.96" Hg
Pressure 1015 hPa
Elevation 109
METAR KASL 190455Z AUTO 00000KT 5SM CLR 24/22 A2996 RMK AO1 T02400223
Observed Flight Rules
Sep-19 @ 04:55 UTC
(20 minutes ago)
MVFR
Clouds
  • Clear skies
Temperature Dewpoint
24°C / 75°F 22°C / 72°F
Humidity Altimeter Pressure
89% 29.96" Hg 1015 hPa